createdAt,value
2022-12-08T08:27:28.357Z,24.15
2022-12-08T08:38:29.395Z,31.70
2022-12-08T08:41:31.357Z,30.65
2022-12-08T08:44:52.806Z,30.58
2022-12-08T08:47:54.976Z,39.22
2022-12-08T08:50:34.347Z,37.55
2022-12-08T08:53:38.741Z,34.55
2022-12-08T08:59:22.224Z,42.05
2022-12-08T09:02:20.977Z,47.25
2022-12-08T09:05:05.831Z,41.08
2022-12-08T09:07:38.236Z,35.67
2022-12-08T09:10:13.135Z,38.53
2022-12-08T09:16:14.067Z,39.15
2022-12-08T09:22:03.194Z,52.55
2022-12-08T09:27:28.705Z,46.15
2022-12-08T09:30:50.717Z,38.83
2022-12-08T09:36:53.642Z,34.90
2022-12-08T09:40:21.067Z,34.70
2022-12-08T10:08:16.200Z,23.00
2022-12-08T10:42:08.610Z,19.95
2022-12-08T11:19:42.949Z,14.48
2022-12-08T11:22:41.723Z,18.00
2022-12-08T11:25:12.571Z,14.50
2022-12-08T11:30:24.988Z,11.05
2022-12-08T11:33:01.405Z,9.85
2022-12-08T11:35:33.954Z,11.40
2022-12-08T11:38:21.627Z,9.75
2022-12-08T11:41:03.104Z,9.05
2022-12-08T11:43:33.781Z,11.63
2022-12-08T11:46:24.139Z,14.07
2022-12-08T11:48:54.055Z,14.15
2022-12-08T11:51:42.917Z,10.82
2022-12-08T11:54:34.449Z,12.13
2022-12-08T11:57:06.252Z,7.68
2022-12-08T11:59:38.165Z,10.85
2022-12-08T12:02:11.330Z,12.80
2022-12-08T12:04:50.047Z,15.07
2022-12-08T12:07:39.309Z,12.10
2022-12-08T12:10:37.144Z,28.10
2022-12-08T12:13:36.298Z,12.15
2022-12-08T12:16:42.454Z,13.95
2022-12-08T12:19:17.807Z,10.48
2022-12-08T13:53:35.066Z,7.35
